sensor_id;sensor_type;location;lat;lon;timestamp;P1;durP1;ratioP1;P2;durP2;ratioP2
50789;SDS011;37287;47.554;7.844;2023-09-19T00:01:06;1.48;;;1.20;;
50789;SDS011;37287;47.554;7.844;2023-09-19T00:03:38;3.78;;;1.48;;
50789;SDS011;37287;47.554;7.844;2023-09-19T00:06:10;2.35;;;1.52;;
50789;SDS011;37287;47.554;7.844;2023-09-19T00:08:36;7.30;;;1.85;;
50789;SDS011;37287;47.554;7.844;2023-09-19T00:11:03;2.67;;;1.65;;
50789;SDS011;37287;47.554;7.844;2023-09-19T00:13:30;2.20;;;1.40;;
50789;SDS011;37287;47.554;7.844;2023-09-19T00:15:57;3.08;;;1.38;;
50789;SDS011;37287;47.554;7.844;2023-09-19T00:18:25;1.38;;;1.25;;
50789;SDS011;37287;47.554;7.844;2023-09-19T00:21:00;1.70;;;1.15;;
50789;SDS011;37287;47.554;7.844;2023-09-19T00:23:27;1.50;;;1.27;;
50789;SDS011;37287;47.554;7.844;2023-09-19T00:25:54;2.33;;;1.20;;
50789;SDS011;37287;47.554;7.844;2023-09-19T00:28:27;1.00;;;1.00;;
50789;SDS011;37287;47.554;7.844;2023-09-19T00:30:54;1.42;;;1.08;;
50789;SDS011;37287;47.554;7.844;2023-09-19T00:33:21;0.90;;;0.90;;
50789;SDS011;37287;47.554;7.844;2023-09-19T00:35:49;1.40;;;1.00;;
50789;SDS011;37287;47.554;7.844;2023-09-19T00:38:17;1.10;;;1.00;;
50789;SDS011;37287;47.554;7.844;2023-09-19T00:40:47;1.00;;;0.90;;
50789;SDS011;37287;47.554;7.844;2023-09-19T00:43:15;0.98;;;0.90;;
50789;SDS011;37287;47.554;7.844;2023-09-19T00:45:44;0.95;;;0.73;;
50789;SDS011;37287;47.554;7.844;2023-09-19T00:48:17;1.17;;;1.08;;
50789;SDS011;37287;47.554;7.844;2023-09-19T00:50:47;1.08;;;1.00;;
50789;SDS011;37287;47.554;7.844;2023-09-19T00:53:16;1.77;;;0.80;;
50789;SDS011;37287;47.554;7.844;2023-09-19T00:55:47;0.70;;;0.70;;
50789;SDS011;37287;47.554;7.844;2023-09-19T00:58:16;1.15;;;0.85;;
50789;SDS011;37287;47.554;7.844;2023-09-19T01:00:46;2.28;;;0.88;;
50789;SDS011;37287;47.554;7.844;2023-09-19T01:03:15;0.82;;;0.82;;
50789;SDS011;37287;47.554;7.844;2023-09-19T01:05:45;2.53;;;0.93;;
50789;SDS011;37287;47.554;7.844;2023-09-19T01:08:13;0.80;;;0.80;;
50789;SDS011;37287;47.554;7.844;2023-09-19T01:10:44;1.08;;;1.08;;
50789;SDS011;37287;47.554;7.844;2023-09-19T01:13:34;1.23;;;1.17;;
50789;SDS011;37287;47.554;7.844;2023-09-19T01:19:41;2.00;;;1.20;;
50789;SDS011;37287;47.554;7.844;2023-09-19T01:22:42;1.10;;;1.00;;
50789;SDS011;37287;47.554;7.844;2023-09-19T01:25:42;1.15;;;1.10;;
50789;SDS011;37287;47.554;7.844;2023-09-19T01:28:34;2.30;;;1.13;;
50789;SDS011;37287;47.554;7.844;2023-09-19T01:31:13;1.27;;;1.10;;
50789;SDS011;37287;47.554;7.844;2023-09-19T01:33:54;1.33;;;1.08;;
50789;SDS011;37287;47.554;7.844;2023-09-19T01:36:38;0.95;;;0.80;;
50789;SDS011;37287;47.554;7.844;2023-09-19T01:39:08;1.35;;;1.10;;
50789;SDS011;37287;47.554;7.844;2023-09-19T01:41:45;1.48;;;0.98;;
50789;SDS011;37287;47.554;7.844;2023-09-19T01:44:25;1.67;;;1.00;;
50789;SDS011;37287;47.554;7.844;2023-09-19T01:47:04;3.55;;;1.30;;
50789;SDS011;37287;47.554;7.844;2023-09-19T01:49:44;1.88;;;1.15;;
50789;SDS011;37287;47.554;7.844;2023-09-19T01:52:22;2.65;;;1.00;;
50789;SDS011;37287;47.554;7.844;2023-09-19T01:54:56;2.35;;;1.08;;
50789;SDS011;37287;47.554;7.844;2023-09-19T01:57:34;1.35;;;1.13;;
50789;SDS011;37287;47.554;7.844;2023-09-19T02:00:10;1.55;;;1.13;;
50789;SDS011;37287;47.554;7.844;2023-09-19T02:02:40;1.17;;;1.08;;
50789;SDS011;37287;47.554;7.844;2023-09-19T02:05:13;4.78;;;1.00;;
50789;SDS011;37287;47.554;7.844;2023-09-19T02:07:48;0.93;;;0.90;;
50789;SDS011;37287;47.554;7.844;2023-09-19T02:10:17;0.75;;;0.75;;
50789;SDS011;37287;47.554;7.844;2023-09-19T02:12:44;0.90;;;0.82;;
50789;SDS011;37287;47.554;7.844;2023-09-19T02:15:11;0.95;;;0.90;;
50789;SDS011;37287;47.554;7.844;2023-09-19T02:17:40;1.65;;;0.90;;
50789;SDS011;37287;47.554;7.844;2023-09-19T02:20:08;1.58;;;1.10;;
50789;SDS011;37287;47.554;7.844;2023-09-19T02:22:36;1.75;;;1.00;;
50789;SDS011;37287;47.554;7.844;2023-09-19T02:25:09;1.30;;;1.20;;
50789;SDS011;37287;47.554;7.844;2023-09-19T02:27:37;1.33;;;0.85;;
50789;SDS011;37287;47.554;7.844;2023-09-19T02:30:04;1.95;;;0.90;;
50789;SDS011;37287;47.554;7.844;2023-09-19T02:32:32;1.08;;;1.00;;
50789;SDS011;37287;47.554;7.844;2023-09-19T02:35:03;1.77;;;0.73;;
50789;SDS011;37287;47.554;7.844;2023-09-19T02:37:31;1.55;;;0.90;;
50789;SDS011;37287;47.554;7.844;2023-09-19T02:40:00;1.33;;;0.80;;
50789;SDS011;37287;47.554;7.844;2023-09-19T02:42:27;0.75;;;0.70;;
50789;SDS011;37287;47.554;7.844;2023-09-19T02:44:56;1.58;;;0.80;;
50789;SDS011;37287;47.554;7.844;2023-09-19T02:47:23;2.45;;;0.63;;
50789;SDS011;37287;47.554;7.844;2023-09-19T02:49:50;1.85;;;0.70;;
50789;SDS011;37287;47.554;7.844;2023-09-19T02:52:16;1.20;;;0.90;;
50789;SDS011;37287;47.554;7.844;2023-09-19T02:54:45;0.70;;;0.70;;
50789;SDS011;37287;47.554;7.844;2023-09-19T02:57:12;0.95;;;0.70;;
50789;SDS011;37287;47.554;7.844;2023-09-19T02:59:40;1.20;;;0.70;;
50789;SDS011;37287;47.554;7.844;2023-09-19T03:02:08;1.77;;;0.70;;
50789;SDS011;37287;47.554;7.844;2023-09-19T03:04:35;1.20;;;0.80;;
50789;SDS011;37287;47.554;7.844;2023-09-19T03:07:06;1.00;;;0.90;;
50789;SDS011;37287;47.554;7.844;2023-09-19T03:09:37;3.22;;;1.00;;
50789;SDS011;37287;47.554;7.844;2023-09-19T03:12:03;1.65;;;0.65;;
50789;SDS011;37287;47.554;7.844;2023-09-19T03:14:30;0.70;;;0.70;;
50789;SDS011;37287;47.554;7.844;2023-09-19T03:17:01;1.60;;;0.93;;
50789;SDS011;37287;47.554;7.844;2023-09-19T03:19:31;1.83;;;0.80;;
50789;SDS011;37287;47.554;7.844;2023-09-19T03:22:01;1.10;;;0.80;;
50789;SDS011;37287;47.554;7.844;2023-09-19T03:24:29;1.00;;;0.77;;
50789;SDS011;37287;47.554;7.844;2023-09-19T03:26:55;0.93;;;0.75;;
50789;SDS011;37287;47.554;7.844;2023-09-19T03:29:22;1.83;;;0.90;;
50789;SDS011;37287;47.554;7.844;2023-09-19T03:31:49;3.33;;;0.63;;
50789;SDS011;37287;47.554;7.844;2023-09-19T03:34:16;1.05;;;0.80;;
50789;SDS011;37287;47.554;7.844;2023-09-19T03:36:43;1.55;;;0.95;;
50789;SDS011;37287;47.554;7.844;2023-09-19T03:39:11;1.13;;;0.85;;
50789;SDS011;37287;47.554;7.844;2023-09-19T03:41:42;1.75;;;0.90;;
50789;SDS011;37287;47.554;7.844;2023-09-19T03:44:08;1.65;;;0.50;;
50789;SDS011;37287;47.554;7.844;2023-09-19T03:46:36;1.08;;;0.95;;
50789;SDS011;37287;47.554;7.844;2023-09-19T03:49:03;6.68;;;1.10;;
50789;SDS011;37287;47.554;7.844;2023-09-19T03:51:30;1.50;;;0.90;;
50789;SDS011;37287;47.554;7.844;2023-09-19T03:53:59;0.90;;;0.75;;
50789;SDS011;37287;47.554;7.844;2023-09-19T03:56:26;1.80;;;0.70;;
50789;SDS011;37287;47.554;7.844;2023-09-19T03:58:52;1.10;;;0.80;;
50789;SDS011;37287;47.554;7.844;2023-09-19T04:01:19;1.33;;;0.80;;
50789;SDS011;37287;47.554;7.844;2023-09-19T04:03:46;2.33;;;0.90;;
50789;SDS011;37287;47.554;7.844;2023-09-19T04:06:14;1.02;;;0.90;;
50789;SDS011;37287;47.554;7.844;2023-09-19T04:08:45;1.52;;;0.93;;
50789;SDS011;37287;47.554;7.844;2023-09-19T04:11:13;1.02;;;0.88;;
50789;SDS011;37287;47.554;7.844;2023-09-19T04:13:43;1.38;;;1.00;;
50789;SDS011;37287;47.554;7.844;2023-09-19T04:16:10;0.85;;;0.80;;
50789;SDS011;37287;47.554;7.844;2023-09-19T04:18:37;1.30;;;1.10;;
50789;SDS011;37287;47.554;7.844;2023-09-19T04:21:04;1.05;;;0.95;;
50789;SDS011;37287;47.554;7.844;2023-09-19T04:23:32;0.77;;;0.77;;
50789;SDS011;37287;47.554;7.844;2023-09-19T04:25:59;1.60;;;0.88;;
50789;SDS011;37287;47.554;7.844;2023-09-19T04:28:26;1.15;;;1.00;;
50789;SDS011;37287;47.554;7.844;2023-09-19T04:30:59;1.38;;;0.95;;
50789;SDS011;37287;47.554;7.844;2023-09-19T04:33:26;1.00;;;0.77;;
50789;SDS011;37287;47.554;7.844;2023-09-19T04:35:56;0.77;;;0.77;;
50789;SDS011;37287;47.554;7.844;2023-09-19T04:38:40;3.42;;;1.13;;
50789;SDS011;37287;47.554;7.844;2023-09-19T04:41:12;0.98;;;0.93;;
50789;SDS011;37287;47.554;7.844;2023-09-19T04:43:39;1.48;;;0.80;;
50789;SDS011;37287;47.554;7.844;2023-09-19T04:46:06;0.90;;;0.80;;
50789;SDS011;37287;47.554;7.844;2023-09-19T04:48:33;1.88;;;0.80;;
50789;SDS011;37287;47.554;7.844;2023-09-19T04:51:01;1.05;;;0.90;;
50789;SDS011;37287;47.554;7.844;2023-09-19T04:53:29;2.85;;;0.95;;
50789;SDS011;37287;47.554;7.844;2023-09-19T04:55:56;0.95;;;0.77;;
50789;SDS011;37287;47.554;7.844;2023-09-19T04:58:26;1.05;;;0.75;;
50789;SDS011;37287;47.554;7.844;2023-09-19T05:01:00;1.05;;;0.50;;
50789;SDS011;37287;47.554;7.844;2023-09-19T05:03:30;0.70;;;0.70;;
50789;SDS011;37287;47.554;7.844;2023-09-19T05:05:57;1.63;;;0.90;;
50789;SDS011;37287;47.554;7.844;2023-09-19T05:08:24;1.85;;;0.70;;
50789;SDS011;37287;47.554;7.844;2023-09-19T05:10:53;0.75;;;0.73;;
50789;SDS011;37287;47.554;7.844;2023-09-19T05:13:22;3.25;;;1.08;;
50789;SDS011;37287;47.554;7.844;2023-09-19T05:15:53;1.42;;;0.88;;
50789;SDS011;37287;47.554;7.844;2023-09-19T05:18:24;0.80;;;0.80;;
50789;SDS011;37287;47.554;7.844;2023-09-19T05:20:52;0.73;;;0.73;;
50789;SDS011;37287;47.554;7.844;2023-09-19T05:23:18;0.85;;;0.75;;
50789;SDS011;37287;47.554;7.844;2023-09-19T05:25:47;1.75;;;0.77;;
50789;SDS011;37287;47.554;7.844;2023-09-19T05:28:17;1.60;;;0.90;;
50789;SDS011;37287;47.554;7.844;2023-09-19T05:30:44;1.13;;;0.70;;
50789;SDS011;37287;47.554;7.844;2023-09-19T05:33:14;2.42;;;1.13;;
50789;SDS011;37287;47.554;7.844;2023-09-19T05:35:41;0.70;;;0.70;;
50789;SDS011;37287;47.554;7.844;2023-09-19T05:38:08;0.88;;;0.80;;
50789;SDS011;37287;47.554;7.844;2023-09-19T05:40:43;1.88;;;0.85;;
50789;SDS011;37287;47.554;7.844;2023-09-19T05:43:11;1.23;;;0.85;;
50789;SDS011;37287;47.554;7.844;2023-09-19T05:45:40;1.83;;;0.70;;
50789;SDS011;37287;47.554;7.844;2023-09-19T05:48:10;3.72;;;0.80;;
50789;SDS011;37287;47.554;7.844;2023-09-19T05:50:39;0.95;;;0.60;;
50789;SDS011;37287;47.554;7.844;2023-09-19T05:53:06;0.77;;;0.68;;
50789;SDS011;37287;47.554;7.844;2023-09-19T05:55:33;3.47;;;0.90;;
50789;SDS011;37287;47.554;7.844;2023-09-19T05:57:59;1.83;;;0.98;;
50789;SDS011;37287;47.554;7.844;2023-09-19T06:00:26;1.40;;;0.90;;
50789;SDS011;37287;47.554;7.844;2023-09-19T06:02:56;2.08;;;0.90;;
50789;SDS011;37287;47.554;7.844;2023-09-19T06:05:25;0.60;;;0.60;;
50789;SDS011;37287;47.554;7.844;2023-09-19T06:07:53;3.10;;;1.00;;
50789;SDS011;37287;47.554;7.844;2023-09-19T06:10:20;1.15;;;0.80;;
50789;SDS011;37287;47.554;7.844;2023-09-19T06:12:51;1.02;;;0.82;;
50789;SDS011;37287;47.554;7.844;2023-09-19T06:15:17;0.80;;;0.70;;
50789;SDS011;37287;47.554;7.844;2023-09-19T06:17:50;0.70;;;0.65;;
50789;SDS011;37287;47.554;7.844;2023-09-19T06:20:17;1.15;;;0.80;;
50789;SDS011;37287;47.554;7.844;2023-09-19T06:22:46;2.88;;;0.80;;
50789;SDS011;37287;47.554;7.844;2023-09-19T06:25:21;0.57;;;0.57;;
50789;SDS011;37287;47.554;7.844;2023-09-19T06:27:49;0.88;;;0.70;;
50789;SDS011;37287;47.554;7.844;2023-09-19T06:30:21;0.70;;;0.60;;
50789;SDS011;37287;47.554;7.844;2023-09-19T06:32:56;1.20;;;0.60;;
50789;SDS011;37287;47.554;7.844;2023-09-19T06:35:27;0.82;;;0.70;;
50789;SDS011;37287;47.554;7.844;2023-09-19T06:37:57;0.70;;;0.50;;
50789;SDS011;37287;47.554;7.844;2023-09-19T06:40:28;1.40;;;0.55;;
50789;SDS011;37287;47.554;7.844;2023-09-19T06:42:57;0.50;;;0.50;;
50789;SDS011;37287;47.554;7.844;2023-09-19T06:45:26;1.08;;;0.63;;
50789;SDS011;37287;47.554;7.844;2023-09-19T06:47:53;1.50;;;0.60;;
50789;SDS011;37287;47.554;7.844;2023-09-19T06:50:24;1.02;;;0.70;;
50789;SDS011;37287;47.554;7.844;2023-09-19T06:53:03;0.70;;;0.60;;
50789;SDS011;37287;47.554;7.844;2023-09-19T06:55:33;0.65;;;0.60;;
50789;SDS011;37287;47.554;7.844;2023-09-19T06:58:00;0.73;;;0.52;;
50789;SDS011;37287;47.554;7.844;2023-09-19T07:00:29;1.73;;;0.80;;
50789;SDS011;37287;47.554;7.844;2023-09-19T07:02:58;0.65;;;0.65;;
50789;SDS011;37287;47.554;7.844;2023-09-19T07:05:31;0.60;;;0.60;;
50789;SDS011;37287;47.554;7.844;2023-09-19T07:07:58;2.60;;;0.60;;
50789;SDS011;37287;47.554;7.844;2023-09-19T07:10:28;1.58;;;0.90;;
50789;SDS011;37287;47.554;7.844;2023-09-19T07:12:56;0.90;;;0.90;;
50789;SDS011;37287;47.554;7.844;2023-09-19T07:15:25;1.92;;;1.20;;
50789;SDS011;37287;47.554;7.844;2023-09-19T07:17:54;1.77;;;0.85;;
50789;SDS011;37287;47.554;7.844;2023-09-19T07:20:23;1.02;;;0.88;;
50789;SDS011;37287;47.554;7.844;2023-09-19T07:22:54;0.75;;;0.75;;
50789;SDS011;37287;47.554;7.844;2023-09-19T07:25:26;1.17;;;0.90;;
50789;SDS011;37287;47.554;7.844;2023-09-19T07:27:57;1.45;;;0.90;;
50789;SDS011;37287;47.554;7.844;2023-09-19T07:30:29;2.05;;;1.10;;
50789;SDS011;37287;47.554;7.844;2023-09-19T07:32:56;0.98;;;0.80;;
50789;SDS011;37287;47.554;7.844;2023-09-19T07:35:23;1.48;;;0.82;;
50789;SDS011;37287;47.554;7.844;2023-09-19T07:37:50;1.02;;;0.85;;
50789;SDS011;37287;47.554;7.844;2023-09-19T07:40:18;1.77;;;1.02;;
50789;SDS011;37287;47.554;7.844;2023-09-19T07:42:47;1.55;;;0.98;;
50789;SDS011;37287;47.554;7.844;2023-09-19T07:45:15;1.13;;;1.08;;
50789;SDS011;37287;47.554;7.844;2023-09-19T07:47:47;1.98;;;1.00;;
50789;SDS011;37287;47.554;7.844;2023-09-19T07:50:21;1.17;;;1.00;;
50789;SDS011;37287;47.554;7.844;2023-09-19T07:52:48;1.33;;;0.70;;
50789;SDS011;37287;47.554;7.844;2023-09-19T07:55:19;2.22;;;1.10;;
50789;SDS011;37287;47.554;7.844;2023-09-19T07:57:50;0.80;;;0.80;;
50789;SDS011;37287;47.554;7.844;2023-09-19T08:00:17;3.15;;;1.42;;
50789;SDS011;37287;47.554;7.844;2023-09-19T08:02:46;1.42;;;0.98;;
50789;SDS011;37287;47.554;7.844;2023-09-19T08:05:29;0.95;;;0.95;;
50789;SDS011;37287;47.554;7.844;2023-09-19T08:07:56;1.15;;;1.00;;
50789;SDS011;37287;47.554;7.844;2023-09-19T08:10:23;1.77;;;1.10;;
50789;SDS011;37287;47.554;7.844;2023-09-19T08:12:55;1.60;;;0.90;;
50789;SDS011;37287;47.554;7.844;2023-09-19T08:15:24;1.48;;;1.15;;
50789;SDS011;37287;47.554;7.844;2023-09-19T08:17:51;2.08;;;1.10;;
50789;SDS011;37287;47.554;7.844;2023-09-19T08:20:26;1.52;;;0.75;;
50789;SDS011;37287;47.554;7.844;2023-09-19T08:22:53;1.95;;;0.90;;
50789;SDS011;37287;47.554;7.844;2023-09-19T08:25:23;1.00;;;0.73;;
50789;SDS011;37287;47.554;7.844;2023-09-19T08:27:54;1.10;;;1.00;;
50789;SDS011;37287;47.554;7.844;2023-09-19T08:30:24;1.60;;;1.05;;
50789;SDS011;37287;47.554;7.844;2023-09-19T08:32:51;1.38;;;1.00;;
50789;SDS011;37287;47.554;7.844;2023-09-19T08:35:25;1.60;;;1.00;;
50789;SDS011;37287;47.554;7.844;2023-09-19T08:37:53;1.50;;;1.08;;
50789;SDS011;37287;47.554;7.844;2023-09-19T08:40:22;1.77;;;1.10;;
50789;SDS011;37287;47.554;7.844;2023-09-19T08:42:50;1.40;;;1.20;;
50789;SDS011;37287;47.554;7.844;2023-09-19T08:45:17;1.08;;;0.98;;
50789;SDS011;37287;47.554;7.844;2023-09-19T08:47:50;2.10;;;1.15;;
50789;SDS011;37287;47.554;7.844;2023-09-19T08:50:49;1.43;;;1.00;;
50789;SDS011;37287;47.554;7.844;2023-09-19T08:53:41;0.98;;;0.93;;
50789;SDS011;37287;47.554;7.844;2023-09-19T08:56:18;3.35;;;1.00;;
50789;SDS011;37287;47.554;7.844;2023-09-19T08:58:46;2.90;;;1.25;;
50789;SDS011;37287;47.554;7.844;2023-09-19T09:01:27;1.20;;;1.10;;
50789;SDS011;37287;47.554;7.844;2023-09-19T09:03:55;0.98;;;0.80;;
50789;SDS011;37287;47.554;7.844;2023-09-19T09:06:25;2.08;;;0.90;;
50789;SDS011;37287;47.554;7.844;2023-09-19T09:08:54;2.08;;;1.02;;
50789;SDS011;37287;47.554;7.844;2023-09-19T09:11:20;2.75;;;1.30;;
50789;SDS011;37287;47.554;7.844;2023-09-19T09:13:48;2.20;;;0.98;;
50789;SDS011;37287;47.554;7.844;2023-09-19T09:16:18;2.15;;;1.25;;
50789;SDS011;37287;47.554;7.844;2023-09-19T09:18:46;1.38;;;1.00;;
50789;SDS011;37287;47.554;7.844;2023-09-19T09:21:19;1.52;;;0.88;;
50789;SDS011;37287;47.554;7.844;2023-09-19T09:23:51;1.35;;;1.10;;
50789;SDS011;37287;47.554;7.844;2023-09-19T09:29:07;1.58;;;1.17;;
50789;SDS011;37287;47.554;7.844;2023-09-19T09:31:34;1.85;;;1.15;;
50789;SDS011;37287;47.554;7.844;2023-09-19T09:34:01;4.15;;;1.55;;
50789;SDS011;37287;47.554;7.844;2023-09-19T09:36:39;1.90;;;1.30;;
50789;SDS011;37287;47.554;7.844;2023-09-19T09:39:08;1.42;;;0.90;;
50789;SDS011;37287;47.554;7.844;2023-09-19T09:41:46;1.67;;;0.88;;
50789;SDS011;37287;47.554;7.844;2023-09-19T09:44:15;1.90;;;1.10;;
50789;SDS011;37287;47.554;7.844;2023-09-19T09:46:47;1.40;;;0.90;;
50789;SDS011;37287;47.554;7.844;2023-09-19T09:49:25;0.90;;;0.90;;
50789;SDS011;37287;47.554;7.844;2023-09-19T09:52:00;1.50;;;0.88;;
50789;SDS011;37287;47.554;7.844;2023-09-19T09:54:37;2.08;;;1.02;;
50789;SDS011;37287;47.554;7.844;2023-09-19T09:57:09;2.53;;;1.15;;
50789;SDS011;37287;47.554;7.844;2023-09-19T09:59:56;1.38;;;1.00;;
50789;SDS011;37287;47.554;7.844;2023-09-19T10:02:42;1.20;;;0.90;;
50789;SDS011;37287;47.554;7.844;2023-09-19T10:05:20;1.55;;;1.10;;
50789;SDS011;37287;47.554;7.844;2023-09-19T10:07:53;2.05;;;0.90;;
50789;SDS011;37287;47.554;7.844;2023-09-19T10:10:29;1.20;;;1.10;;
50789;SDS011;37287;47.554;7.844;2023-09-19T10:13:05;2.30;;;1.10;;
50789;SDS011;37287;47.554;7.844;2023-09-19T10:15:36;1.85;;;0.93;;
50789;SDS011;37287;47.554;7.844;2023-09-19T10:18:04;1.52;;;0.95;;
50789;SDS011;37287;47.554;7.844;2023-09-19T10:20:31;1.05;;;0.95;;
50789;SDS011;37287;47.554;7.844;2023-09-19T10:23:00;1.30;;;1.05;;
50789;SDS011;37287;47.554;7.844;2023-09-19T10:25:30;0.80;;;0.80;;
50789;SDS011;37287;47.554;7.844;2023-09-19T10:27:57;2.20;;;0.90;;
50789;SDS011;37287;47.554;7.844;2023-09-19T10:30:29;0.95;;;0.80;;
50789;SDS011;37287;47.554;7.844;2023-09-19T10:33:01;1.13;;;0.70;;
50789;SDS011;37287;47.554;7.844;2023-09-19T10:35:30;1.42;;;0.90;;
50789;SDS011;37287;47.554;7.844;2023-09-19T10:38:00;1.65;;;0.85;;
50789;SDS011;37287;47.554;7.844;2023-09-19T10:40:27;1.50;;;0.90;;
50789;SDS011;37287;47.554;7.844;2023-09-19T10:42:59;0.80;;;0.80;;
50789;SDS011;37287;47.554;7.844;2023-09-19T10:45:30;1.67;;;0.70;;
50789;SDS011;37287;47.554;7.844;2023-09-19T10:48:01;1.15;;;0.90;;
50789;SDS011;37287;47.554;7.844;2023-09-19T10:50:44;1.02;;;0.80;;
50789;SDS011;37287;47.554;7.844;2023-09-19T10:53:16;1.58;;;0.73;;
50789;SDS011;37287;47.554;7.844;2023-09-19T10:55:54;1.10;;;1.00;;
50789;SDS011;37287;47.554;7.844;2023-09-19T10:58:31;0.80;;;0.80;;
50789;SDS011;37287;47.554;7.844;2023-09-19T11:01:04;1.58;;;0.65;;
50789;SDS011;37287;47.554;7.844;2023-09-19T11:03:43;2.03;;;0.70;;
50789;SDS011;37287;47.554;7.844;2023-09-19T11:06:12;0.82;;;0.80;;
50789;SDS011;37287;47.554;7.844;2023-09-19T11:08:52;1.20;;;0.90;;
50789;SDS011;37287;47.554;7.844;2023-09-19T11:30:44;0.63;;;0.63;;
50789;SDS011;37287;47.554;7.844;2023-09-19T11:33:22;0.60;;;0.57;;
50789;SDS011;37287;47.554;7.844;2023-09-19T11:36:05;0.82;;;0.70;;
50789;SDS011;37287;47.554;7.844;2023-09-19T11:46:23;0.75;;;0.52;;
50789;SDS011;37287;47.554;7.844;2023-09-19T11:48:51;1.13;;;0.80;;
50789;SDS011;37287;47.554;7.844;2023-09-19T11:51:21;0.70;;;0.65;;
50789;SDS011;37287;47.554;7.844;2023-09-19T11:53:51;1.17;;;0.70;;
50789;SDS011;37287;47.554;7.844;2023-09-19T11:56:19;0.70;;;0.60;;
50789;SDS011;37287;47.554;7.844;2023-09-19T11:58:50;1.88;;;0.80;;
50789;SDS011;37287;47.554;7.844;2023-09-19T12:01:21;2.33;;;0.80;;
50789;SDS011;37287;47.554;7.844;2023-09-19T12:03:57;2.50;;;0.60;;
50789;SDS011;37287;47.554;7.844;2023-09-19T12:06:26;0.85;;;0.60;;
50789;SDS011;37287;47.554;7.844;2023-09-19T12:08:56;0.70;;;0.60;;
50789;SDS011;37287;47.554;7.844;2023-09-19T12:11:28;0.57;;;0.52;;
50789;SDS011;37287;47.554;7.844;2023-09-19T12:14:00;1.10;;;0.60;;
50789;SDS011;37287;47.554;7.844;2023-09-19T12:16:27;0.52;;;0.52;;
50789;SDS011;37287;47.554;7.844;2023-09-19T12:18:57;1.15;;;0.90;;
50789;SDS011;37287;47.554;7.844;2023-09-19T12:21:30;1.77;;;0.73;;
50789;SDS011;37287;47.554;7.844;2023-09-19T12:24:21;0.60;;;0.50;;
50789;SDS011;37287;47.554;7.844;2023-09-19T12:26:46;0.65;;;0.60;;
50789;SDS011;37287;47.554;7.844;2023-09-19T12:29:21;1.85;;;0.82;;
50789;SDS011;37287;47.554;7.844;2023-09-19T12:31:49;0.60;;;0.50;;
50789;SDS011;37287;47.554;7.844;2023-09-19T12:34:28;0.55;;;0.55;;
50789;SDS011;37287;47.554;7.844;2023-09-19T12:39:50;0.82;;;0.60;;
50789;SDS011;37287;47.554;7.844;2023-09-19T12:42:23;1.35;;;0.80;;
50789;SDS011;37287;47.554;7.844;2023-09-19T12:44:54;0.57;;;0.50;;
50789;SDS011;37287;47.554;7.844;2023-09-19T12:47:24;0.55;;;0.50;;
50789;SDS011;37287;47.554;7.844;2023-09-19T12:50:11;1.15;;;0.60;;
50789;SDS011;37287;47.554;7.844;2023-09-19T12:52:47;3.15;;;0.80;;
50789;SDS011;37287;47.554;7.844;2023-09-19T12:55:25;1.70;;;0.55;;
50789;SDS011;37287;47.554;7.844;2023-09-19T12:58:08;0.75;;;0.50;;
50789;SDS011;37287;47.554;7.844;2023-09-19T13:00:39;1.08;;;0.60;;
50789;SDS011;37287;47.554;7.844;2023-09-19T13:03:18;1.35;;;0.80;;
50789;SDS011;37287;47.554;7.844;2023-09-19T13:08:21;0.82;;;0.65;;
50789;SDS011;37287;47.554;7.844;2023-09-19T13:11:11;1.27;;;0.60;;
50789;SDS011;37287;47.554;7.844;2023-09-19T13:14:14;1.67;;;0.70;;
50789;SDS011;37287;47.554;7.844;2023-09-19T13:25:16;1.15;;;0.68;;
50789;SDS011;37287;47.554;7.844;2023-09-19T13:27:47;0.60;;;0.60;;
50789;SDS011;37287;47.554;7.844;2023-09-19T13:30:19;0.70;;;0.70;;
50789;SDS011;37287;47.554;7.844;2023-09-19T13:32:46;1.48;;;0.77;;
50789;SDS011;37287;47.554;7.844;2023-09-19T13:35:14;1.42;;;0.70;;
50789;SDS011;37287;47.554;7.844;2023-09-19T13:37:42;2.00;;;1.00;;
50789;SDS011;37287;47.554;7.844;2023-09-19T13:40:13;2.00;;;0.60;;
50789;SDS011;37287;47.554;7.844;2023-09-19T13:42:40;2.38;;;0.85;;
50789;SDS011;37287;47.554;7.844;2023-09-19T13:45:11;1.90;;;0.75;;
50789;SDS011;37287;47.554;7.844;2023-09-19T13:47:39;2.75;;;1.15;;
50789;SDS011;37287;47.554;7.844;2023-09-19T13:50:07;3.30;;;0.60;;
50789;SDS011;37287;47.554;7.844;2023-09-19T13:52:34;3.40;;;0.80;;
50789;SDS011;37287;47.554;7.844;2023-09-19T13:55:01;1.75;;;0.90;;
50789;SDS011;37287;47.554;7.844;2023-09-19T13:57:28;1.08;;;0.65;;
50789;SDS011;37287;47.554;7.844;2023-09-19T13:59:56;1.42;;;0.85;;
50789;SDS011;37287;47.554;7.844;2023-09-19T14:02:22;1.13;;;0.70;;
50789;SDS011;37287;47.554;7.844;2023-09-19T14:04:53;1.00;;;0.65;;
50789;SDS011;37287;47.554;7.844;2023-09-19T14:07:21;0.60;;;0.60;;
50789;SDS011;37287;47.554;7.844;2023-09-19T14:09:48;0.47;;;0.47;;
50789;SDS011;37287;47.554;7.844;2023-09-19T14:12:14;1.52;;;0.70;;
50789;SDS011;37287;47.554;7.844;2023-09-19T14:14:41;0.95;;;0.77;;
50789;SDS011;37287;47.554;7.844;2023-09-19T14:17:09;0.93;;;0.57;;
50789;SDS011;37287;47.554;7.844;2023-09-19T14:19:36;1.63;;;0.70;;
50789;SDS011;37287;47.554;7.844;2023-09-19T14:22:03;2.38;;;0.82;;
50789;SDS011;37287;47.554;7.844;2023-09-19T14:24:34;0.75;;;0.70;;
50789;SDS011;37287;47.554;7.844;2023-09-19T14:27:02;1.55;;;0.50;;
50789;SDS011;37287;47.554;7.844;2023-09-19T14:29:32;2.80;;;0.68;;
50789;SDS011;37287;47.554;7.844;2023-09-19T14:31:58;0.73;;;0.70;;
50789;SDS011;37287;47.554;7.844;2023-09-19T14:34:29;0.88;;;0.70;;
50789;SDS011;37287;47.554;7.844;2023-09-19T14:36:57;1.33;;;0.70;;
50789;SDS011;37287;47.554;7.844;2023-09-19T14:39:24;0.60;;;0.50;;
50789;SDS011;37287;47.554;7.844;2023-09-19T14:41:51;0.65;;;0.65;;
50789;SDS011;37287;47.554;7.844;2023-09-19T14:44:18;0.75;;;0.50;;
50789;SDS011;37287;47.554;7.844;2023-09-19T14:46:44;0.65;;;0.50;;
50789;SDS011;37287;47.554;7.844;2023-09-19T14:49:11;0.93;;;0.70;;
50789;SDS011;37287;47.554;7.844;2023-09-19T14:51:38;1.20;;;0.73;;
50789;SDS011;37287;47.554;7.844;2023-09-19T14:54:10;0.95;;;0.70;;
50789;SDS011;37287;47.554;7.844;2023-09-19T14:56:37;1.02;;;0.70;;
50789;SDS011;37287;47.554;7.844;2023-09-19T14:59:08;0.82;;;0.60;;
50789;SDS011;37287;47.554;7.844;2023-09-19T15:01:37;0.57;;;0.30;;
50789;SDS011;37287;47.554;7.844;2023-09-19T15:04:05;0.85;;;0.60;;
50789;SDS011;37287;47.554;7.844;2023-09-19T15:06:33;0.52;;;0.52;;
50789;SDS011;37287;47.554;7.844;2023-09-19T15:09:00;0.20;;;0.20;;
50789;SDS011;37287;47.554;7.844;2023-09-19T15:11:27;0.88;;;0.63;;
50789;SDS011;37287;47.554;7.844;2023-09-19T15:13:55;1.65;;;0.60;;
50789;SDS011;37287;47.554;7.844;2023-09-19T15:16:23;1.02;;;0.70;;
50789;SDS011;37287;47.554;7.844;2023-09-19T15:18:49;1.88;;;0.65;;
50789;SDS011;37287;47.554;7.844;2023-09-19T15:21:20;0.50;;;0.50;;
50789;SDS011;37287;47.554;7.844;2023-09-19T15:23:47;0.55;;;0.47;;
50789;SDS011;37287;47.554;7.844;2023-09-19T15:26:16;0.50;;;0.50;;
50789;SDS011;37287;47.554;7.844;2023-09-19T15:28:48;2.55;;;0.77;;
50789;SDS011;37287;47.554;7.844;2023-09-19T15:31:16;1.10;;;0.75;;
50789;SDS011;37287;47.554;7.844;2023-09-19T15:33:43;0.82;;;0.73;;
50789;SDS011;37287;47.554;7.844;2023-09-19T15:36:10;0.82;;;0.70;;
50789;SDS011;37287;47.554;7.844;2023-09-19T15:41:26;0.82;;;0.50;;
50789;SDS011;37287;47.554;7.844;2023-09-19T15:44:11;1.05;;;0.80;;
50789;SDS011;37287;47.554;7.844;2023-09-19T15:46:41;0.70;;;0.70;;
50789;SDS011;37287;47.554;7.844;2023-09-19T15:49:09;1.08;;;0.57;;
50789;SDS011;37287;47.554;7.844;2023-09-19T15:51:35;0.68;;;0.55;;
50789;SDS011;37287;47.554;7.844;2023-09-19T15:54:08;0.98;;;0.65;;
50789;SDS011;37287;47.554;7.844;2023-09-19T15:56:41;1.35;;;0.68;;
50789;SDS011;37287;47.554;7.844;2023-09-19T15:59:19;1.60;;;0.63;;